sensor_id;sensor_type;location;lat;lon;timestamp;P1;durP1;ratioP1;P2;durP2;ratioP2
29302;SDS011;60019;45.556;12.004;2024-01-16T09:05:29;12.38;;;7.28;;
29302;SDS011;60019;45.556;12.004;2024-01-16T09:11:30;10.20;;;6.85;;
29302;SDS011;60019;45.556;12.004;2024-01-16T09:17:32;15.32;;;9.00;;
29302;SDS011;60019;45.556;12.004;2024-01-16T09:23:34;10.32;;;6.90;;
29302;SDS011;60019;45.556;12.004;2024-01-16T09:29:36;10.90;;;6.55;;
29302;SDS011;60019;45.556;12.004;2024-01-16T09:35:38;12.43;;;6.63;;
29302;SDS011;60019;45.556;12.004;2024-01-16T09:41:40;10.70;;;7.22;;
29302;SDS011;60019;45.556;12.004;2024-01-16T09:47:43;24.95;;;13.43;;
29302;SDS011;60019;45.556;12.004;2024-01-16T09:53:45;18.48;;;10.02;;
29302;SDS011;60019;45.556;12.004;2024-01-16T09:59:47;20.95;;;11.43;;
29302;SDS011;60019;45.556;12.004;2024-01-16T10:05:49;27.52;;;13.95;;
29302;SDS011;60019;45.556;12.004;2024-01-16T10:11:54;19.63;;;12.23;;
29302;SDS011;60019;45.556;12.004;2024-01-16T10:17:56;16.58;;;10.98;;
29302;SDS011;60019;45.556;12.004;2024-01-16T10:24:10;14.20;;;9.40;;
29302;SDS011;60019;45.556;12.004;2024-01-16T10:30:13;12.82;;;8.85;;
29302;SDS011;60019;45.556;12.004;2024-01-16T10:36:15;14.18;;;8.98;;
29302;SDS011;60019;45.556;12.004;2024-01-16T10:42:18;12.18;;;8.68;;
29302;SDS011;60019;45.556;12.004;2024-01-16T10:48:21;16.50;;;10.88;;
29302;SDS011;60019;45.556;12.004;2024-01-16T10:54:22;16.23;;;9.23;;
29302;SDS011;60019;45.556;12.004;2024-01-16T11:00:24;16.77;;;9.45;;
29302;SDS011;60019;45.556;12.004;2024-01-16T11:06:26;14.98;;;8.90;;
29302;SDS011;60019;45.556;12.004;2024-01-16T11:12:30;13.23;;;8.77;;
29302;SDS011;60019;45.556;12.004;2024-01-16T11:18:32;13.60;;;8.75;;
29302;SDS011;60019;45.556;12.004;2024-01-16T11:24:34;14.30;;;9.45;;
29302;SDS011;60019;45.556;12.004;2024-01-16T11:30:36;15.32;;;10.10;;
29302;SDS011;60019;45.556;12.004;2024-01-16T11:36:50;15.45;;;10.20;;
29302;SDS011;60019;45.556;12.004;2024-01-16T11:42:54;15.70;;;9.90;;
29302;SDS011;60019;45.556;12.004;2024-01-16T11:49:06;12.38;;;8.05;;
29302;SDS011;60019;45.556;12.004;2024-01-16T11:55:27;12.88;;;7.90;;
29302;SDS011;60019;45.556;12.004;2024-01-16T12:01:29;11.95;;;8.73;;
29302;SDS011;60019;45.556;12.004;2024-01-16T12:07:41;11.25;;;7.43;;
29302;SDS011;60019;45.556;12.004;2024-01-16T12:13:43;11.38;;;7.43;;
29302;SDS011;60019;45.556;12.004;2024-01-16T12:19:45;39.30;;;18.33;;
29302;SDS011;60019;45.556;12.004;2024-01-16T12:25:50;80.40;;;38.33;;
29302;SDS011;60019;45.556;12.004;2024-01-16T12:32:06;69.25;;;32.20;;
29302;SDS011;60019;45.556;12.004;2024-01-16T12:38:08;51.92;;;24.90;;
29302;SDS011;60019;45.556;12.004;2024-01-16T12:44:10;34.58;;;18.15;;
29302;SDS011;60019;45.556;12.004;2024-01-16T12:50:18;29.27;;;15.85;;
29302;SDS011;60019;45.556;12.004;2024-01-16T12:56:20;86.35;;;35.78;;
29302;SDS011;60019;45.556;12.004;2024-01-16T13:02:23;57.83;;;26.75;;
29302;SDS011;60019;45.556;12.004;2024-01-16T13:08:25;42.58;;;19.75;;
29302;SDS011;60019;45.556;12.004;2024-01-16T13:14:27;27.70;;;13.80;;
29302;SDS011;60019;45.556;12.004;2024-01-16T13:20:29;23.27;;;10.40;;
29302;SDS011;60019;45.556;12.004;2024-01-16T13:26:31;15.10;;;9.38;;
29302;SDS011;60019;45.556;12.004;2024-01-16T13:32:33;12.82;;;7.53;;
29302;SDS011;60019;45.556;12.004;2024-01-16T13:38:37;9.43;;;6.28;;
29302;SDS011;60019;45.556;12.004;2024-01-16T13:44:39;10.02;;;7.22;;
29302;SDS011;60019;45.556;12.004;2024-01-16T13:50:41;50.58;;;22.27;;
29302;SDS011;60019;45.556;12.004;2024-01-16T13:56:42;90.38;;;37.53;;
29302;SDS011;60019;45.556;12.004;2024-01-16T14:02:45;74.57;;;30.85;;
29302;SDS011;60019;45.556;12.004;2024-01-16T14:08:47;48.67;;;23.98;;
29302;SDS011;60019;45.556;12.004;2024-01-16T14:14:49;36.00;;;17.58;;
29302;SDS011;60019;45.556;12.004;2024-01-16T14:20:51;25.50;;;14.13;;
29302;SDS011;60019;45.556;12.004;2024-01-16T14:26:53;19.25;;;10.75;;
29302;SDS011;60019;45.556;12.004;2024-01-16T14:32:57;15.80;;;8.68;;
29302;SDS011;60019;45.556;12.004;2024-01-16T14:38:59;15.27;;;9.30;;
29302;SDS011;60019;45.556;12.004;2024-01-16T14:45:01;12.68;;;7.40;;
29302;SDS011;60019;45.556;12.004;2024-01-16T14:51:02;16.58;;;9.52;;
29302;SDS011;60019;45.556;12.004;2024-01-16T14:57:05;13.43;;;7.60;;
29302;SDS011;60019;45.556;12.004;2024-01-16T15:03:07;17.33;;;7.40;;
29302;SDS011;60019;45.556;12.004;2024-01-16T15:09:09;22.45;;;9.63;;
29302;SDS011;60019;45.556;12.004;2024-01-16T15:15:13;13.77;;;7.93;;
29302;SDS011;60019;45.556;12.004;2024-01-16T15:21:15;13.68;;;7.65;;
29302;SDS011;60019;45.556;12.004;2024-01-16T15:27:19;11.95;;;6.68;;
29302;SDS011;60019;45.556;12.004;2024-01-16T15:33:22;11.43;;;7.00;;
29302;SDS011;60019;45.556;12.004;2024-01-16T15:39:24;14.82;;;7.72;;
29302;SDS011;60019;45.556;12.004;2024-01-16T15:45:26;11.07;;;6.90;;
29302;SDS011;60019;45.556;12.004;2024-01-16T15:51:28;12.43;;;7.85;;
29302;SDS011;60019;45.556;12.004;2024-01-16T15:57:30;11.00;;;8.50;;
29302;SDS011;60019;45.556;12.004;2024-01-16T16:03:32;13.10;;;9.23;;
29302;SDS011;60019;45.556;12.004;2024-01-16T16:09:34;15.20;;;9.57;;
29302;SDS011;60019;45.556;12.004;2024-01-16T16:15:39;15.07;;;9.77;;
29302;SDS011;60019;45.556;12.004;2024-01-16T16:21:42;15.05;;;10.00;;
29302;SDS011;60019;45.556;12.004;2024-01-16T16:27:45;16.73;;;11.32;;
29302;SDS011;60019;45.556;12.004;2024-01-16T16:33:48;19.75;;;12.32;;
29302;SDS011;60019;45.556;12.004;2024-01-16T16:39:50;19.85;;;11.93;;
29302;SDS011;60019;45.556;12.004;2024-01-16T16:45:52;18.35;;;12.30;;
29302;SDS011;60019;45.556;12.004;2024-01-16T16:51:53;19.90;;;12.13;;
29302;SDS011;60019;45.556;12.004;2024-01-16T16:57:55;19.38;;;12.38;;
29302;SDS011;60019;45.556;12.004;2024-01-16T17:03:57;27.92;;;16.77;;
29302;SDS011;60019;45.556;12.004;2024-01-16T17:09:59;24.17;;;14.98;;
29302;SDS011;60019;45.556;12.004;2024-01-16T17:16:01;28.85;;;16.35;;
29302;SDS011;60019;45.556;12.004;2024-01-16T17:22:03;24.70;;;14.60;;
29302;SDS011;60019;45.556;12.004;2024-01-16T17:28:05;24.10;;;15.02;;
29302;SDS011;60019;45.556;12.004;2024-01-16T17:34:06;27.05;;;14.55;;
29302;SDS011;60019;45.556;12.004;2024-01-16T17:40:08;25.23;;;13.70;;
29302;SDS011;60019;45.556;12.004;2024-01-16T17:46:13;23.42;;;13.90;;
29302;SDS011;60019;45.556;12.004;2024-01-16T17:52:14;22.60;;;14.07;;
29302;SDS011;60019;45.556;12.004;2024-01-16T17:58:16;23.35;;;14.27;;
29302;SDS011;60019;45.556;12.004;2024-01-16T18:04:22;23.55;;;15.32;;
29302;SDS011;60019;45.556;12.004;2024-01-16T18:10:24;21.15;;;14.68;;
29302;SDS011;60019;45.556;12.004;2024-01-16T18:16:26;25.77;;;16.80;;
29302;SDS011;60019;45.556;12.004;2024-01-16T18:22:27;27.77;;;17.30;;
29302;SDS011;60019;45.556;12.004;2024-01-16T18:28:29;28.08;;;16.88;;
29302;SDS011;60019;45.556;12.004;2024-01-16T18:34:31;29.52;;;17.52;;
29302;SDS011;60019;45.556;12.004;2024-01-16T18:40:33;27.25;;;17.58;;
29302;SDS011;60019;45.556;12.004;2024-01-16T18:46:35;28.52;;;17.15;;
29302;SDS011;60019;45.556;12.004;2024-01-16T18:52:37;26.17;;;16.55;;
29302;SDS011;60019;45.556;12.004;2024-01-16T18:58:40;25.30;;;16.98;;
29302;SDS011;60019;45.556;12.004;2024-01-16T19:04:43;30.00;;;18.05;;
29302;SDS011;60019;45.556;12.004;2024-01-16T19:10:47;28.50;;;17.35;;
29302;SDS011;60019;45.556;12.004;2024-01-16T19:16:49;27.88;;;17.17;;
29302;SDS011;60019;45.556;12.004;2024-01-16T19:22:51;28.20;;;18.48;;
29302;SDS011;60019;45.556;12.004;2024-01-16T19:28:55;27.35;;;18.67;;
29302;SDS011;60019;45.556;12.004;2024-01-16T19:34:57;26.70;;;17.25;;
29302;SDS011;60019;45.556;12.004;2024-01-16T19:40:59;29.45;;;18.20;;
29302;SDS011;60019;45.556;12.004;2024-01-16T19:47:01;30.88;;;18.38;;
29302;SDS011;60019;45.556;12.004;2024-01-16T19:53:03;49.70;;;28.42;;
29302;SDS011;60019;45.556;12.004;2024-01-16T19:59:07;46.88;;;24.23;;
29302;SDS011;60019;45.556;12.004;2024-01-16T20:05:11;35.28;;;21.63;;
29302;SDS011;60019;45.556;12.004;2024-01-16T20:11:22;31.02;;;18.75;;
29302;SDS011;60019;45.556;12.004;2024-01-16T20:17:26;30.13;;;17.90;;
29302;SDS011;60019;45.556;12.004;2024-01-16T20:23:28;36.58;;;19.90;;
29302;SDS011;60019;45.556;12.004;2024-01-16T20:29:31;29.25;;;17.20;;
29302;SDS011;60019;45.556;12.004;2024-01-16T20:35:33;29.40;;;17.33;;
29302;SDS011;60019;45.556;12.004;2024-01-16T20:41:34;28.45;;;17.25;;
29302;SDS011;60019;45.556;12.004;2024-01-16T20:47:37;39.22;;;22.17;;
29302;SDS011;60019;45.556;12.004;2024-01-16T20:53:40;30.13;;;17.77;;
29302;SDS011;60019;45.556;12.004;2024-01-16T20:59:42;31.63;;;19.40;;
29302;SDS011;60019;45.556;12.004;2024-01-16T21:05:45;28.75;;;18.45;;
29302;SDS011;60019;45.556;12.004;2024-01-16T21:11:47;28.13;;;16.73;;
29302;SDS011;60019;45.556;12.004;2024-01-16T21:17:48;22.75;;;15.45;;
29302;SDS011;60019;45.556;12.004;2024-01-16T21:23:50;28.38;;;17.73;;
29302;SDS011;60019;45.556;12.004;2024-01-16T21:29:52;24.30;;;16.60;;
29302;SDS011;60019;45.556;12.004;2024-01-16T21:35:54;25.83;;;16.70;;
29302;SDS011;60019;45.556;12.004;2024-01-16T21:41:56;21.25;;;14.80;;
29302;SDS011;60019;45.556;12.004;2024-01-16T21:47:58;25.23;;;15.80;;
29302;SDS011;60019;45.556;12.004;2024-01-16T21:54:00;22.15;;;15.38;;
29302;SDS011;60019;45.556;12.004;2024-01-16T22:00:02;21.83;;;14.43;;
29302;SDS011;60019;45.556;12.004;2024-01-16T22:06:05;23.38;;;14.73;;
29302;SDS011;60019;45.556;12.004;2024-01-16T22:12:08;21.92;;;14.70;;
29302;SDS011;60019;45.556;12.004;2024-01-16T22:18:10;21.25;;;14.55;;
29302;SDS011;60019;45.556;12.004;2024-01-16T22:24:12;20.67;;;13.68;;
29302;SDS011;60019;45.556;12.004;2024-01-16T22:30:14;22.77;;;14.30;;
29302;SDS011;60019;45.556;12.004;2024-01-16T22:36:16;49.60;;;24.67;;
29302;SDS011;60019;45.556;12.004;2024-01-16T22:42:18;64.70;;;31.48;;
29302;SDS011;60019;45.556;12.004;2024-01-16T22:48:21;44.67;;;25.25;;
29302;SDS011;60019;45.556;12.004;2024-01-16T22:54:23;32.05;;;20.20;;
29302;SDS011;60019;45.556;12.004;2024-01-16T23:00:25;27.65;;;17.45;;
29302;SDS011;60019;45.556;12.004;2024-01-16T23:06:29;26.65;;;16.58;;
29302;SDS011;60019;45.556;12.004;2024-01-16T23:12:32;23.48;;;15.55;;
29302;SDS011;60019;45.556;12.004;2024-01-16T23:18:33;20.55;;;13.93;;
29302;SDS011;60019;45.556;12.004;2024-01-16T23:24:36;21.45;;;14.50;;
29302;SDS011;60019;45.556;12.004;2024-01-16T23:30:38;18.38;;;13.38;;
29302;SDS011;60019;45.556;12.004;2024-01-16T23:36:40;24.20;;;14.30;;
29302;SDS011;60019;45.556;12.004;2024-01-16T23:42:42;23.20;;;15.15;;
29302;SDS011;60019;45.556;12.004;2024-01-16T23:48:45;30.50;;;17.05;;
29302;SDS011;60019;45.556;12.004;2024-01-16T23:54:47;33.83;;;18.60;;
